createdAt,value
2023-02-06T00:00:38.039Z,101843.41
2023-02-06T00:03:39.520Z,101849.53
2023-02-06T00:06:41.441Z,101849.41
2023-02-06T00:09:42.906Z,101847.59
2023-02-06T00:12:44.464Z,101846.16
2023-02-06T00:15:45.963Z,101849.84
2023-02-06T00:18:48.000Z,101858.88
2023-02-06T00:21:49.572Z,101851.34
2023-02-06T00:24:51.123Z,101858.41
2023-02-06T00:27:52.634Z,101864.41
2023-02-06T00:30:54.202Z,101862.16
2023-02-06T00:33:55.749Z,101853.59
2023-02-06T00:36:57.185Z,101862.38
2023-02-06T00:39:58.597Z,101859.75
2023-02-06T00:43:00.032Z,101848.41
2023-02-06T00:46:01.459Z,101860.22
2023-02-06T00:49:03.409Z,101854.03
2023-02-06T00:52:04.947Z,101853.16
2023-02-06T00:55:06.776Z,101842.78
2023-02-06T00:58:08.301Z,101848.19
2023-02-06T01:01:09.809Z,101844.31
2023-02-06T01:04:11.262Z,101839.69
2023-02-06T01:07:12.776Z,101844.03
2023-02-06T01:10:14.419Z,101855.22
2023-02-06T01:13:15.988Z,101852.44
2023-02-06T01:16:20.157Z,101862.38
2023-02-06T01:19:21.724Z,101863.25
2023-02-06T01:22:23.290Z,101866.75
2023-02-06T01:25:24.763Z,101873.41
2023-02-06T01:28:27.067Z,101870.41
2023-02-06T01:31:30.640Z,101875.75
2023-02-06T01:34:32.114Z,101870.56
2023-02-06T01:37:35.870Z,101862.16
2023-02-06T01:40:37.194Z,101860.50
2023-02-06T01:43:43.237Z,101857.91
2023-02-06T01:46:47.681Z,101852.81
2023-02-06T01:49:50.989Z,101834.09
2023-02-06T01:52:52.564Z,101835.09
2023-02-06T01:55:55.771Z,101833.13
2023-02-06T01:59:00.109Z,101840.59
2023-02-06T02:02:02.265Z,101827.31
2023-02-06T02:05:07.290Z,101825.41
2023-02-06T02:08:27.918Z,101818.56
2023-02-06T02:11:31.810Z,101829.38
2023-02-06T02:14:35.179Z,101827.41
2023-02-06T02:17:40.358Z,101835.81
2023-02-06T02:21:05.077Z,101825.19
2023-02-06T02:24:15.130Z,101825.47
2023-02-06T02:27:35.825Z,101821.38
2023-02-06T02:30:56.266Z,101827.00
2023-02-06T02:34:19.665Z,101819.41
2023-02-06T02:37:33.149Z,101820.13
2023-02-06T02:40:40.830Z,101828.94
2023-02-06T02:43:54.197Z,101830.84
2023-02-06T02:46:58.544Z,101821.00
2023-02-06T02:50:03.265Z,101823.88
2023-02-06T02:53:05.856Z,101835.44
2023-02-06T02:56:20.468Z,101847.38
2023-02-06T02:59:29.144Z,101843.16
2023-02-06T03:02:37.718Z,101836.84
2023-02-06T03:05:51.884Z,101835.06
2023-02-06T03:09:33.412Z,101838.13
2023-02-06T03:12:42.713Z,101845.00
2023-02-06T03:16:07.675Z,101835.69
2023-02-06T03:19:14.938Z,101840.63
2023-02-06T03:22:17.696Z,101833.63
2023-02-06T03:25:27.988Z,101831.19
2023-02-06T03:28:37.722Z,101833.56
2023-02-06T03:31:45.492Z,101832.34
2023-02-06T03:35:18.847Z,101825.03
2023-02-06T03:38:20.696Z,101829.25
2023-02-06T03:41:26.637Z,101828.81
2023-02-06T03:44:33.491Z,101837.00
2023-02-06T03:47:38.324Z,101841.66
2023-02-06T03:50:43.568Z,101844.16
2023-02-06T03:53:47.793Z,101845.28
2023-02-06T03:56:59.574Z,101846.50
2023-02-06T04:00:01.183Z,101850.69
2023-02-06T04:03:04.186Z,101842.56
2023-02-06T04:06:05.662Z,101845.34
2023-02-06T04:09:07.078Z,101836.81
2023-02-06T04:12:09.284Z,101832.91
2023-02-06T04:15:11.176Z,101834.78
2023-02-06T04:18:12.613Z,101834.94
2023-02-06T04:21:14.070Z,101839.22
2023-02-06T04:24:15.707Z,101838.19
2023-02-06T04:27:17.303Z,101831.22
2023-02-06T04:30:18.947Z,101838.84
2023-02-06T04:33:20.418Z,101848.63
2023-02-06T04:36:22.017Z,101834.47
2023-02-06T04:39:23.842Z,101820.84
2023-02-06T04:42:25.252Z,101820.38
2023-02-06T04:45:26.660Z,101835.66
2023-02-06T04:48:28.236Z,101831.03
2023-02-06T04:51:29.760Z,101835.97
2023-02-06T04:54:32.704Z,101845.34
2023-02-06T04:57:34.259Z,101832.66
2023-02-06T05:00:37.332Z,101836.84
2023-02-06T05:03:40.053Z,101831.50
2023-02-06T05:06:41.629Z,101834.41
2023-02-06T05:09:43.108Z,101841.94
2023-02-06T05:12:44.564Z,101845.41
2023-02-06T05:15:46.287Z,101846.56
2023-02-06T05:18:47.707Z,101851.63
2023-02-06T05:21:49.173Z,101847.66
2023-02-06T05:24:50.618Z,101848.25
2023-02-06T05:27:53.340Z,101848.34
2023-02-06T05:30:55.079Z,101858.00
2023-02-06T05:33:56.642Z,101851.38
2023-02-06T05:36:58.073Z,101848.44
2023-02-06T05:40:00.095Z,101849.47
2023-02-06T05:43:01.615Z,101840.53
2023-02-06T05:46:03.136Z,101833.00
2023-02-06T05:49:04.767Z,101840.03
2023-02-06T05:52:06.217Z,101842.50
2023-02-06T05:55:08.121Z,101846.31
2023-02-06T05:58:09.601Z,101837.44
2023-02-06T06:01:12.941Z,101844.88
2023-02-06T06:04:14.545Z,101849.09
2023-02-06T06:07:16.299Z,101845.88
2023-02-06T06:10:17.933Z,101848.81
2023-02-06T06:13:19.333Z,101855.50
2023-02-06T06:16:20.781Z,101859.78
2023-02-06T06:19:22.267Z,101865.75
2023-02-06T06:22:23.737Z,101855.59
2023-02-06T06:25:25.127Z,101853.53
2023-02-06T06:28:26.661Z,101843.69
2023-02-06T06:31:28.165Z,101842.00
2023-02-06T06:34:29.817Z,101852.34
2023-02-06T06:37:31.285Z,101851.41
2023-02-06T06:40:32.735Z,101843.34
2023-02-06T06:43:35.018Z,101849.44
2023-02-06T06:46:36.399Z,101844.06
2023-02-06T06:49:38.925Z,101846.75
2023-02-06T06:52:40.352Z,101851.44
2023-02-06T06:55:41.792Z,101848.25
2023-02-06T06:58:43.247Z,101841.59
2023-02-06T07:01:44.646Z,101847.66
2023-02-06T07:04:46.289Z,101850.44
2023-02-06T07:07:47.711Z,101859.06
2023-02-06T07:10:49.330Z,101862.06
2023-02-06T07:13:50.841Z,101863.25
2023-02-06T07:16:52.269Z,101855.13
2023-02-06T07:19:53.673Z,101849.69
2023-02-06T07:22:55.134Z,101848.50
2023-02-06T07:26:02.121Z,101835.88
2023-02-06T07:29:03.687Z,101835.56
2023-02-06T07:32:05.891Z,101832.59
2023-02-06T07:35:07.455Z,101827.19
2023-02-06T07:38:08.867Z,101841.56
2023-02-06T07:41:12.623Z,101849.28
2023-02-06T07:44:14.513Z,101853.25
2023-02-06T07:47:16.421Z,101858.84
2023-02-06T07:50:18.109Z,101854.66
2023-02-06T07:53:19.602Z,101871.19
2023-02-06T07:56:23.396Z,101870.00
2023-02-06T07:59:24.871Z,101880.09
2023-02-06T08:02:26.304Z,101884.03
2023-02-06T08:05:27.772Z,101890.44
2023-02-06T08:08:29.263Z,101877.03
2023-02-06T08:11:30.967Z,101869.31
2023-02-06T08:14:32.606Z,101876.91
2023-02-06T08:17:34.019Z,101872.97
2023-02-06T08:20:35.423Z,101860.56
2023-02-06T08:23:37.043Z,101865.75
2023-02-06T08:26:38.862Z,101867.59
2023-02-06T08:29:42.589Z,101868.66
2023-02-06T08:32:44.279Z,101866.44
2023-02-06T08:35:45.723Z,101881.22
2023-02-06T08:38:47.986Z,101868.56
2023-02-06T08:41:49.956Z,101867.25
2023-02-06T08:44:53.774Z,101863.72
2023-02-06T08:47:55.191Z,101861.16
2023-02-06T08:51:05.141Z,101864.44
2023-02-06T08:54:09.866Z,101872.31
2023-02-06T08:57:12.801Z,101874.56
2023-02-06T09:00:14.838Z,101863.56
2023-02-06T09:03:16.224Z,101868.00
2023-02-06T09:06:17.685Z,101872.25
2023-02-06T09:09:19.164Z,101870.16
2023-02-06T09:12:21.607Z,101867.34
2023-02-06T09:15:23.030Z,101872.16
2023-02-06T09:18:24.472Z,101877.97
2023-02-06T09:21:26.057Z,101881.94
2023-02-06T09:24:30.071Z,101875.00
2023-02-06T09:27:31.492Z,101882.66
2023-02-06T09:30:33.194Z,101889.38
2023-02-06T09:33:35.350Z,101879.28
2023-02-06T09:36:37.546Z,101877.44
2023-02-06T09:39:38.990Z,101876.16
2023-02-06T09:42:41.706Z,101868.84
2023-02-06T09:45:43.214Z,101862.06
2023-02-06T09:48:44.706Z,101863.72
2023-02-06T09:52:15.083Z,101864.84
2023-02-06T09:55:30.516Z,101865.59
2023-02-06T09:58:59.892Z,101868.44
2023-02-06T10:02:21.421Z,101864.00
2023-02-06T10:05:50.805Z,101842.13
2023-02-06T10:09:01.775Z,101845.06
2023-02-06T10:12:11.902Z,101842.13
2023-02-06T10:15:22.986Z,101849.63
2023-02-06T10:18:34.740Z,101845.81
2023-02-06T10:21:47.065Z,101840.97
2023-02-06T10:25:16.478Z,101824.78
2023-02-06T10:28:28.736Z,101820.69
2023-02-06T10:31:38.632Z,101824.06
2023-02-06T10:34:48.646Z,101820.31
2023-02-06T10:38:17.576Z,101803.03
2023-02-06T10:41:27.186Z,101804.41
2023-02-06T10:44:48.481Z,101791.25
2023-02-06T10:48:16.267Z,101788.00
2023-02-06T10:51:30.954Z,101789.41
2023-02-06T10:54:42.406Z,101784.63
2023-02-06T10:57:47.056Z,101778.91
2023-02-06T11:00:50.572Z,101775.50
2023-02-06T11:04:16.828Z,101773.88
2023-02-06T11:07:26.712Z,101759.28
2023-02-06T11:10:28.309Z,101767.25
2023-02-06T11:13:36.827Z,101754.78
2023-02-06T11:16:38.749Z,101756.00
2023-02-06T11:19:42.919Z,101756.94
2023-02-06T11:22:52.728Z,101757.53
2023-02-06T11:26:10.547Z,101745.66
2023-02-06T11:29:21.947Z,101749.22
2023-02-06T11:32:35.884Z,101739.09
2023-02-06T11:35:49.323Z,101741.97
2023-02-06T11:38:57.211Z,101745.78
2023-02-06T11:42:04.034Z,101738.28
2023-02-06T11:45:25.192Z,101740.56
2023-02-06T11:48:37.366Z,101742.59
2023-02-06T11:51:53.947Z,101737.19
2023-02-06T11:54:56.896Z,101733.66
2023-02-06T11:58:13.597Z,101733.44
2023-02-06T12:01:22.173Z,101725.66
2023-02-06T12:04:30.676Z,101720.84
2023-02-06T12:08:02.470Z,101722.41
2023-02-06T12:11:11.590Z,101727.34
2023-02-06T12:14:22.206Z,101724.69
2023-02-06T12:17:46.166Z,101721.50
2023-02-06T12:20:52.962Z,101722.97
2023-02-06T12:23:58.268Z,101710.94
2023-02-06T12:27:05.498Z,101712.34
2023-02-06T12:30:36.258Z,101709.50
2023-02-06T12:33:47.766Z,101710.06
2023-02-06T12:37:00.220Z,101708.38
2023-02-06T12:40:01.830Z,101706.59
2023-02-06T12:43:11.097Z,101693.78
2023-02-06T12:46:18.687Z,101684.00
2023-02-06T12:49:25.741Z,101675.44
2023-02-06T12:52:41.314Z,101667.16
2023-02-06T12:56:24.777Z,101667.00
2023-02-06T12:59:58.502Z,101662.63
2023-02-06T13:03:34.276Z,101665.84
2023-02-06T13:06:46.838Z,101660.00
2023-02-06T13:09:48.147Z,101666.28
2023-02-06T13:12:58.471Z,101670.09
2023-02-06T13:16:00.564Z,101672.34
2023-02-06T13:19:03.584Z,101671.91
2023-02-06T13:22:08.041Z,101661.19
2023-02-06T13:25:24.767Z,101652.66
2023-02-06T13:28:26.394Z,101655.47
2023-02-06T13:31:29.847Z,101644.97
2023-02-06T13:34:33.710Z,101639.69
2023-02-06T13:37:40.787Z,101646.13
2023-02-06T13:40:42.306Z,101649.75
2023-02-06T13:43:54.063Z,101651.50
2023-02-06T13:47:08.516Z,101651.47
2023-02-06T13:50:46.847Z,101649.56
2023-02-06T13:54:22.266Z,101647.78
2023-02-06T13:57:31.353Z,101637.94
2023-02-06T14:00:40.380Z,101648.47
2023-02-06T14:03:48.204Z,101658.13
2023-02-06T14:07:11.489Z,101666.00
2023-02-06T14:10:23.872Z,101652.31
2023-02-06T14:13:48.034Z,101653.16
2023-02-06T14:17:16.875Z,101650.75
2023-02-06T14:20:24.441Z,101643.94
2023-02-06T14:23:38.335Z,101645.91
2023-02-06T14:26:45.724Z,101646.84
2023-02-06T14:30:40.048Z,101652.78
2023-02-06T14:34:08.060Z,101664.34
2023-02-06T14:37:20.535Z,101668.38
2023-02-06T14:40:31.044Z,101672.97
2023-02-06T14:43:37.470Z,101667.41
2023-02-06T14:46:41.086Z,101664.41
2023-02-06T14:49:42.850Z,101678.19
2023-02-06T14:52:48.238Z,101676.69
2023-02-06T14:55:50.310Z,101672.13
2023-02-06T14:58:51.884Z,101681.72
2023-02-06T15:01:54.803Z,101667.41
2023-02-06T15:04:57.031Z,101677.97
2023-02-06T15:08:00.555Z,101671.19
2023-02-06T15:11:07.757Z,101672.59
2023-02-06T15:14:21.340Z,101680.19
2023-02-06T15:17:26.523Z,101675.47
2023-02-06T15:20:42.789Z,101673.06
2023-02-06T15:23:55.610Z,101682.84
2023-02-06T15:27:30.185Z,101681.72
2023-02-06T15:30:34.428Z,101687.78
2023-02-06T15:33:35.958Z,101694.88
2023-02-06T15:36:39.543Z,101688.94
2023-02-06T15:39:41.693Z,101692.19
2023-02-06T15:42:43.333Z,101685.63
2023-02-06T15:45:45.099Z,101688.19
2023-02-06T15:48:46.430Z,101689.59
2023-02-06T15:51:54.961Z,101678.84
2023-02-06T15:54:58.647Z,101688.13
2023-02-06T15:58:03.546Z,101692.78
2023-02-06T16:01:12.996Z,101686.47
2023-02-06T16:04:23.266Z,101703.44
2023-02-06T16:07:27.855Z,101693.97
2023-02-06T16:10:33.201Z,101691.47
2023-02-06T16:13:45.439Z,101691.88
2023-02-06T16:17:09.536Z,101700.13
2023-02-06T16:20:33.260Z,101699.97
2023-02-06T16:24:08.295Z,101706.94
2023-02-06T16:27:19.755Z,101704.91
2023-02-06T16:30:33.945Z,101707.34
2023-02-06T16:33:41.139Z,101709.69
2023-02-06T16:36:42.534Z,101710.47
2023-02-06T16:39:45.798Z,101714.94
2023-02-06T16:42:47.601Z,101720.13
2023-02-06T16:45:49.775Z,101719.38
2023-02-06T16:48:53.069Z,101717.63
2023-02-06T16:51:54.630Z,101720.91
2023-02-06T16:55:00.225Z,101723.44
2023-02-06T16:58:02.255Z,101729.75
2023-02-06T17:01:03.848Z,101737.34
2023-02-06T17:04:05.319Z,101744.19
2023-02-06T17:07:16.418Z,101734.88
2023-02-06T17:10:20.588Z,101743.16
2023-02-06T17:13:24.299Z,101735.63
2023-02-06T17:16:27.080Z,101738.53
2023-02-06T17:19:28.565Z,101735.50
2023-02-06T17:22:30.003Z,101723.06
2023-02-06T17:25:32.207Z,101714.88
2023-02-06T17:28:33.651Z,101723.34
2023-02-06T17:31:35.234Z,101713.19
2023-02-06T17:34:37.423Z,101706.88
2023-02-06T17:37:38.859Z,101701.81
2023-02-06T17:40:41.113Z,101713.19
2023-02-06T17:43:42.910Z,101707.78
2023-02-06T17:46:45.646Z,101712.41
2023-02-06T17:49:47.167Z,101708.00
2023-02-06T17:52:49.165Z,101712.41
2023-02-06T17:55:50.630Z,101723.56
2023-02-06T17:58:52.072Z,101711.63
2023-02-06T18:01:53.693Z,101697.00
2023-02-06T18:04:55.468Z,101706.00
2023-02-06T18:07:57.052Z,101707.47
2023-02-06T18:10:58.593Z,101693.09
2023-02-06T18:14:00.137Z,101681.03
2023-02-06T18:17:03.636Z,101673.53
2023-02-06T18:20:06.071Z,101674.00
2023-02-06T18:23:07.403Z,101661.06
2023-02-06T18:26:09.808Z,101670.69
2023-02-06T18:29:11.162Z,101661.06
2023-02-06T18:32:13.245Z,101660.09
2023-02-06T18:35:16.256Z,101647.69
2023-02-06T18:38:18.160Z,101659.06
2023-02-06T18:41:38.679Z,101661.31
2023-02-06T18:44:42.779Z,101655.31
2023-02-06T18:47:44.446Z,101662.59
2023-02-06T18:50:45.897Z,101657.41
2023-02-06T18:53:47.500Z,101650.84
2023-02-06T18:56:49.876Z,101646.81
2023-02-06T18:59:51.273Z,101652.50
2023-02-06T19:02:53.069Z,101643.72
2023-02-06T19:05:54.819Z,101633.09
2023-02-06T19:08:57.083Z,101636.84
2023-02-06T19:11:58.466Z,101626.56
2023-02-06T19:15:07.451Z,101625.81
2023-02-06T19:18:10.642Z,101626.97
2023-02-06T19:21:16.212Z,101630.00
2023-02-06T19:24:21.726Z,101621.53
2023-02-06T19:27:23.303Z,101622.53
2023-02-06T19:30:24.924Z,101620.31
2023-02-06T19:33:28.758Z,101601.09
2023-02-06T19:36:30.240Z,101601.75
2023-02-06T19:39:34.220Z,101591.38
2023-02-06T19:42:42.106Z,101584.41
2023-02-06T19:45:43.573Z,101588.56
2023-02-06T19:48:46.702Z,101591.22
2023-02-06T19:51:48.822Z,101593.88
2023-02-06T19:54:50.221Z,101598.38
2023-02-06T19:57:51.632Z,101597.72
2023-02-06T20:00:54.981Z,101607.00
2023-02-06T20:03:58.360Z,101602.44
2023-02-06T20:07:00.262Z,101599.22
2023-02-06T20:10:01.745Z,101604.53
2023-02-06T20:13:03.651Z,101612.34
2023-02-06T20:16:07.236Z,101602.03
2023-02-06T20:19:13.092Z,101611.25
2023-02-06T20:22:15.093Z,101610.59
2023-02-06T20:25:17.249Z,101616.72
2023-02-06T20:28:19.352Z,101619.72
2023-02-06T20:31:21.944Z,101618.69
2023-02-06T20:34:24.748Z,101618.22
2023-02-06T20:37:26.490Z,101620.44
2023-02-06T20:40:28.457Z,101608.69
2023-02-06T20:43:33.861Z,101608.69
2023-02-06T20:46:35.973Z,101609.56
2023-02-06T20:49:37.372Z,101622.22
2023-02-06T20:52:39.121Z,101611.75
2023-02-06T20:55:43.964Z,101611.91
2023-02-06T20:58:45.876Z,101612.94
2023-02-06T21:01:47.931Z,101609.16
2023-02-06T21:04:52.194Z,101596.66
2023-02-06T21:07:53.609Z,101598.53
2023-02-06T21:10:55.063Z,101578.03
2023-02-06T21:13:58.447Z,101586.81
2023-02-06T21:16:59.882Z,101597.66
2023-02-06T21:20:01.338Z,101595.84
2023-02-06T21:23:02.776Z,101603.31
2023-02-06T21:26:06.479Z,101591.41
2023-02-06T21:29:08.330Z,101597.44
2023-02-06T21:32:13.891Z,101580.47
2023-02-06T21:35:15.794Z,101566.59
2023-02-06T21:38:17.874Z,101575.09
2023-02-06T21:41:19.299Z,101573.97
2023-02-06T21:44:23.576Z,101559.69
2023-02-06T21:47:25.001Z,101552.94
2023-02-06T21:50:26.539Z,101565.84
2023-02-06T21:53:27.951Z,101557.56
2023-02-06T21:56:30.073Z,101554.69
2023-02-06T21:59:33.927Z,101562.78
2023-02-06T22:02:35.478Z,101562.28
2023-02-06T22:05:37.520Z,101565.38
2023-02-06T22:08:43.204Z,101572.31
2023-02-06T22:11:44.899Z,101558.06
2023-02-06T22:14:46.461Z,101560.63
2023-02-06T22:17:47.923Z,101559.19
2023-02-06T22:20:49.350Z,101560.59
2023-02-06T22:23:52.087Z,101557.56
2023-02-06T22:26:53.483Z,101565.97
2023-02-06T22:29:55.016Z,101569.88
2023-02-06T22:32:56.492Z,101556.38
2023-02-06T22:35:57.900Z,101558.41
2023-02-06T22:39:02.264Z,101548.34
2023-02-06T22:42:03.918Z,101546.72
2023-02-06T22:45:06.198Z,101543.78
2023-02-06T22:48:07.618Z,101547.25
2023-02-06T22:51:10.174Z,101536.78
2023-02-06T22:54:12.900Z,101541.28
2023-02-06T22:57:14.316Z,101539.97
2023-02-06T23:00:16.999Z,101538.03
2023-02-06T23:03:18.366Z,101526.75
2023-02-06T23:06:20.440Z,101533.06
2023-02-06T23:09:25.136Z,101543.19
2023-02-06T23:12:26.674Z,101538.47
2023-02-06T23:15:28.064Z,101536.53
2023-02-06T23:18:29.576Z,101531.47
2023-02-06T23:21:33.760Z,101524.31
2023-02-06T23:24:35.154Z,101528.22
2023-02-06T23:27:36.612Z,101529.13
2023-02-06T23:30:38.145Z,101530.47
2023-02-06T23:33:40.380Z,101535.09
2023-02-06T23:36:42.723Z,101539.94
2023-02-06T23:39:44.129Z,101527.06
2023-02-06T23:42:45.509Z,101536.97
2023-02-06T23:45:46.991Z,101550.69
2023-02-06T23:48:49.167Z,101534.00
2023-02-06T23:51:50.565Z,101532.31
2023-02-06T23:54:52.140Z,101527.13
2023-02-06T23:57:54.093Z,101536.91
